createdAt,value
2024-03-14T00:00:24.595Z,100736.00
2024-03-14T00:02:53.259Z,100736.00
2024-03-14T00:05:21.404Z,100744.00
2024-03-14T00:07:49.319Z,100742.00
2024-03-14T00:10:18.254Z,100739.00
2024-03-14T00:12:47.324Z,100741.00
2024-03-14T00:15:17.228Z,100741.00
2024-03-14T00:17:46.046Z,100739.00
2024-03-14T00:20:14.427Z,100740.00
2024-03-14T00:22:42.857Z,100735.00
2024-03-14T00:25:11.936Z,100732.00
2024-03-14T00:27:39.889Z,100731.00
2024-03-14T00:30:10.139Z,100730.00
2024-03-14T00:32:38.116Z,100724.00
2024-03-14T00:35:06.288Z,100724.00
2024-03-14T00:37:34.193Z,100720.00
2024-03-14T00:40:02.049Z,100718.00
2024-03-14T00:42:30.046Z,100718.00
2024-03-14T00:44:58.783Z,100715.00
2024-03-14T00:47:28.145Z,100714.00
2024-03-14T00:49:56.137Z,100723.00
2024-03-14T00:52:24.049Z,100712.00
2024-03-14T00:54:51.918Z,100712.00
2024-03-14T00:57:19.838Z,100703.00
2024-03-14T00:59:49.092Z,100707.00
2024-03-14T01:02:17.426Z,100705.00
2024-03-14T01:04:46.598Z,100700.00
2024-03-14T01:07:14.471Z,100682.00
2024-03-14T01:09:42.361Z,100696.00
2024-03-14T01:12:10.266Z,100686.00
2024-03-14T01:14:38.153Z,100693.00
2024-03-14T01:17:06.029Z,100661.00
2024-03-14T01:19:34.253Z,100691.00
2024-03-14T01:22:02.105Z,100687.00
2024-03-14T01:24:30.300Z,100686.00
2024-03-14T01:26:59.181Z,100666.00
2024-03-14T01:29:28.763Z,100686.00
2024-03-14T01:31:56.767Z,100691.00
2024-03-14T01:34:24.673Z,100691.00
2024-03-14T01:36:52.495Z,100678.00
2024-03-14T01:39:20.981Z,100679.00
2024-03-14T01:41:51.029Z,100678.00
2024-03-14T01:44:18.875Z,100675.00
2024-03-14T01:46:46.817Z,100662.00
2024-03-14T01:49:14.838Z,100666.00
2024-03-14T01:51:42.797Z,100644.00
2024-03-14T01:54:13.390Z,100668.00
2024-03-14T01:56:58.836Z,100660.00
2024-03-14T01:59:28.854Z,100658.00
2024-03-14T02:01:57.227Z,100657.00
2024-03-14T02:04:28.386Z,100651.00
2024-03-14T02:06:58.243Z,100656.00
2024-03-14T02:09:29.665Z,100664.00
2024-03-14T02:11:57.720Z,100652.00
2024-03-14T02:14:25.633Z,100655.00
2024-03-14T02:16:53.506Z,100659.00
2024-03-14T02:19:21.426Z,100652.00
2024-03-14T02:21:49.793Z,100658.00
2024-03-14T02:24:18.998Z,100653.00
2024-03-14T02:26:46.898Z,100651.00
2024-03-14T02:29:14.805Z,100646.00
2024-03-14T02:31:42.686Z,100644.00
2024-03-14T02:34:11.023Z,100644.00
2024-03-14T02:36:38.864Z,100643.00
2024-03-14T02:39:08.440Z,100643.00
2024-03-14T02:41:36.349Z,100646.00
2024-03-14T02:44:04.203Z,100647.00
2024-03-14T02:46:32.201Z,100635.00
2024-03-14T02:49:00.197Z,100644.00
2024-03-14T02:51:28.189Z,100637.00
2024-03-14T02:53:56.148Z,100632.00
2024-03-14T02:56:24.063Z,100635.00
2024-03-14T02:58:51.925Z,100637.00
2024-03-14T03:01:19.835Z,100628.00
2024-03-14T03:03:47.952Z,100640.00
2024-03-14T03:06:16.060Z,100623.00
2024-03-14T03:08:44.817Z,100626.00
2024-03-14T03:11:12.822Z,100619.00
2024-03-14T03:13:41.623Z,100612.00
2024-03-14T03:16:10.067Z,100619.00
2024-03-14T03:18:39.522Z,100611.00
2024-03-14T03:21:07.584Z,100616.00
2024-03-14T03:23:35.492Z,100615.00
2024-03-14T03:26:06.947Z,100612.00
2024-03-14T03:28:36.350Z,100609.00
2024-03-14T03:31:09.572Z,100612.00
2024-03-14T03:33:37.700Z,100610.00
2024-03-14T03:36:05.961Z,100609.00
2024-03-14T03:38:34.741Z,100604.00
2024-03-14T03:41:02.296Z,100602.00
2024-03-14T03:43:30.169Z,100604.00
2024-03-14T03:45:58.500Z,100596.00
2024-03-14T03:48:25.483Z,100586.00
2024-03-14T03:50:53.596Z,100597.00
2024-03-14T03:53:20.497Z,100595.00
2024-03-14T03:55:48.402Z,100593.00
2024-03-14T03:58:15.277Z,100588.00
2024-03-14T04:00:46.540Z,100592.00
2024-03-14T04:03:13.595Z,100581.00
2024-03-14T04:05:41.468Z,100591.00
2024-03-14T04:08:08.593Z,100587.00
2024-03-14T04:10:36.684Z,100597.00
2024-03-14T04:13:06.501Z,100590.00
2024-03-14T04:15:35.455Z,100589.00
2024-03-14T04:18:06.352Z,100581.00
2024-03-14T04:20:35.190Z,100586.00
2024-03-14T04:23:03.021Z,100580.00
2024-03-14T04:25:31.032Z,100583.00
2024-03-14T04:27:58.888Z,100588.00
2024-03-14T04:30:29.466Z,100581.00
2024-03-14T04:32:58.649Z,100595.00
2024-03-14T04:35:26.669Z,100550.00
2024-03-14T04:37:54.865Z,100581.00
2024-03-14T04:40:22.891Z,100579.00
2024-03-14T04:42:54.114Z,100577.00
2024-03-14T04:45:22.965Z,100580.00
2024-03-14T04:47:51.448Z,100580.00
2024-03-14T04:50:20.189Z,100577.00
2024-03-14T04:52:48.175Z,100590.00
2024-03-14T04:55:16.318Z,100578.00
2024-03-14T04:57:44.942Z,100572.00
2024-03-14T05:00:22.933Z,100580.00
2024-03-14T05:02:52.281Z,100576.00
2024-03-14T05:05:22.703Z,100553.00
2024-03-14T05:07:51.440Z,100568.00
2024-03-14T05:10:21.050Z,100567.00
2024-03-14T05:12:49.867Z,100588.00
2024-03-14T05:15:19.205Z,100577.00
2024-03-14T05:17:48.835Z,100589.00
2024-03-14T05:20:17.738Z,100574.00
2024-03-14T05:22:46.057Z,100599.00
2024-03-14T05:25:14.819Z,100587.00
2024-03-14T05:27:45.460Z,100580.00
2024-03-14T05:30:15.242Z,100582.00
2024-03-14T05:32:43.444Z,100578.00
2024-03-14T05:35:11.908Z,100582.00
2024-03-14T05:37:40.811Z,100583.00
2024-03-14T05:40:11.017Z,100589.00
2024-03-14T05:42:39.128Z,100588.00
2024-03-14T05:45:08.783Z,100592.00
2024-03-14T05:47:36.955Z,100574.00
2024-03-14T05:50:08.030Z,100575.00
2024-03-14T05:52:36.167Z,100583.00
2024-03-14T05:55:04.443Z,100577.00
2024-03-14T05:57:32.774Z,100591.00
2024-03-14T06:00:01.175Z,100572.00
2024-03-14T06:02:29.056Z,100578.00
2024-03-14T06:04:56.978Z,100580.00
2024-03-14T06:07:24.744Z,100582.00
2024-03-14T06:09:52.635Z,100583.00
2024-03-14T06:12:20.617Z,100570.00
2024-03-14T06:14:48.591Z,100580.00
2024-03-14T06:17:17.110Z,100552.00
2024-03-14T06:19:47.225Z,100588.00
2024-03-14T06:22:15.883Z,100587.00
2024-03-14T06:24:44.832Z,100588.00
2024-03-14T06:27:13.479Z,100590.00
2024-03-14T06:29:42.552Z,100597.00
2024-03-14T06:32:10.735Z,100599.00
2024-03-14T06:34:38.862Z,100605.00
2024-03-14T06:37:08.127Z,100594.00
2024-03-14T06:39:38.769Z,100588.00
2024-03-14T06:42:08.089Z,100599.00
2024-03-14T06:44:36.054Z,100599.00
2024-03-14T06:47:03.922Z,100602.00
2024-03-14T06:49:32.622Z,100587.00
2024-03-14T06:52:01.638Z,100591.00
2024-03-14T06:54:30.447Z,100599.00
2024-03-14T06:57:01.666Z,100601.00
2024-03-14T06:59:29.811Z,100595.00
2024-03-14T07:01:58.843Z,100594.00
2024-03-14T07:04:28.588Z,100602.00
2024-03-14T07:07:00.174Z,100600.00
2024-03-14T07:09:28.673Z,100600.00
2024-03-14T07:11:57.207Z,100612.00
2024-03-14T07:14:25.137Z,100598.00
2024-03-14T07:16:55.069Z,100606.00
2024-03-14T07:19:23.544Z,100615.00
2024-03-14T07:21:51.525Z,100622.00
2024-03-14T07:24:19.783Z,100590.00
2024-03-14T07:26:47.673Z,100616.00
2024-03-14T07:29:15.539Z,100614.00
2024-03-14T07:31:44.310Z,100624.00
2024-03-14T07:34:12.301Z,100599.00
2024-03-14T07:36:42.921Z,100616.00
2024-03-14T07:39:12.262Z,100633.00
2024-03-14T07:41:40.286Z,100627.00
2024-03-14T07:44:20.211Z,100611.00
2024-03-14T07:46:54.193Z,100628.00
2024-03-14T07:49:22.196Z,100630.00
2024-03-14T07:51:50.072Z,100630.00
2024-03-14T07:54:19.587Z,100623.00
2024-03-14T07:56:48.485Z,100626.00
2024-03-14T07:59:18.245Z,100617.00
2024-03-14T08:01:46.918Z,100616.00
2024-03-14T08:04:15.713Z,100632.00
2024-03-14T08:06:47.060Z,100619.00
2024-03-14T08:09:16.241Z,100619.00
2024-03-14T08:11:44.336Z,100622.00
2024-03-14T08:14:12.205Z,100637.00
2024-03-14T08:16:40.055Z,100620.00
2024-03-14T08:19:10.516Z,100628.00
2024-03-14T08:21:41.038Z,100630.00
2024-03-14T08:24:13.834Z,100634.00
2024-03-14T08:26:43.054Z,100622.00
2024-03-14T08:29:11.256Z,100630.00
2024-03-14T08:31:41.110Z,100635.00
2024-03-14T08:34:11.831Z,100628.00
2024-03-14T08:36:42.623Z,100639.00
2024-03-14T08:39:11.642Z,100619.00
2024-03-14T08:41:39.599Z,100625.00
2024-03-14T08:44:07.509Z,100628.00
2024-03-14T08:46:36.863Z,100633.00
2024-03-14T08:49:05.040Z,100638.00
2024-03-14T08:51:38.911Z,100638.00
2024-03-14T08:54:10.456Z,100634.00
2024-03-14T08:56:38.637Z,100642.00
2024-03-14T08:59:06.519Z,100649.00
2024-03-14T09:01:34.632Z,100634.00
2024-03-14T09:04:02.521Z,100642.00
2024-03-14T09:06:32.293Z,100641.00
2024-03-14T09:09:01.630Z,100641.00
2024-03-14T09:11:30.432Z,100642.00
2024-03-14T09:13:58.447Z,100639.00
2024-03-14T09:16:27.750Z,100631.00
2024-03-14T09:18:57.024Z,100631.00
2024-03-14T09:21:29.261Z,100628.00
2024-03-14T09:23:57.400Z,100622.00
2024-03-14T09:26:25.887Z,100632.00
2024-03-14T09:28:55.167Z,100619.00
2024-03-14T09:31:24.336Z,100630.00
2024-03-14T09:33:52.576Z,100626.00
2024-03-14T09:36:20.741Z,100623.00
2024-03-14T09:38:48.904Z,100616.00
2024-03-14T09:41:23.351Z,100612.00
2024-03-14T09:43:52.192Z,100629.00
2024-03-14T09:46:21.036Z,100629.00
2024-03-14T09:48:49.011Z,100615.00
2024-03-14T09:51:18.070Z,100611.00
2024-03-14T09:53:46.172Z,100618.00
2024-03-14T09:56:14.269Z,100611.00
2024-03-14T09:58:42.190Z,100610.00
2024-03-14T10:01:11.217Z,100614.00
2024-03-14T10:03:40.504Z,100613.00
2024-03-14T10:06:16.690Z,100601.00
2024-03-14T10:08:47.127Z,100608.00
2024-03-14T10:11:15.113Z,100610.00
2024-03-14T10:13:44.305Z,100597.00
2024-03-14T10:16:12.365Z,100594.00
2024-03-14T10:18:40.868Z,100598.00
2024-03-14T10:21:09.216Z,100596.00
2024-03-14T10:23:37.822Z,100600.00
2024-03-14T10:26:05.877Z,100592.00
2024-03-14T10:28:34.285Z,100598.00
2024-03-14T10:31:05.612Z,100594.00
2024-03-14T10:33:34.032Z,100592.00
2024-03-14T10:36:02.200Z,100591.00
2024-03-14T10:38:36.671Z,100594.00
2024-03-14T10:41:07.645Z,100595.00
2024-03-14T10:43:37.494Z,100595.00
2024-03-14T10:46:06.438Z,100596.00
2024-03-14T10:48:36.335Z,100579.00
2024-03-14T10:51:04.466Z,100593.00
2024-03-14T10:53:33.577Z,100579.00
2024-03-14T10:56:01.430Z,100580.00
2024-03-14T10:58:29.965Z,100581.00
2024-03-14T11:00:57.939Z,100578.00
2024-03-14T11:03:26.065Z,100578.00
2024-03-14T11:05:53.984Z,100580.00
2024-03-14T11:08:22.049Z,100589.00
2024-03-14T11:10:50.080Z,100571.00
2024-03-14T11:13:18.449Z,100577.00
2024-03-14T11:15:47.903Z,100575.00
2024-03-14T11:18:17.781Z,100574.00
2024-03-14T11:20:46.200Z,100578.00
2024-03-14T11:23:15.045Z,100560.00
2024-03-14T11:25:43.741Z,100573.00
2024-03-14T11:28:13.398Z,100576.00
2024-03-14T11:30:44.186Z,100580.00
2024-03-14T11:33:12.395Z,100574.00
2024-03-14T11:35:43.604Z,100570.00
2024-03-14T11:38:29.538Z,100570.00
2024-03-14T11:41:01.777Z,100568.00
2024-03-14T11:43:30.186Z,100558.00
2024-03-14T11:45:59.258Z,100562.00
2024-03-14T11:48:27.280Z,100557.00
2024-03-14T11:50:55.484Z,100560.00
2024-03-14T11:53:23.411Z,100558.00
2024-03-14T11:55:58.653Z,100543.00
2024-03-14T11:58:35.016Z,100552.00
2024-03-14T12:01:05.046Z,100550.00
2024-03-14T12:03:33.264Z,100551.00
2024-03-14T12:06:07.013Z,100546.00
2024-03-14T12:08:37.486Z,100546.00
2024-03-14T12:11:06.089Z,100534.00
2024-03-14T12:13:34.350Z,100533.00
2024-03-14T12:16:03.480Z,100518.00
2024-03-14T12:18:32.224Z,100522.00
2024-03-14T12:21:01.246Z,100526.00
2024-03-14T12:23:29.686Z,100507.00
2024-03-14T12:26:02.747Z,100512.00
2024-03-14T12:28:32.547Z,100513.00
2024-03-14T12:31:01.320Z,100510.00
2024-03-14T12:33:29.302Z,100506.00
2024-03-14T12:35:57.416Z,100499.00
2024-03-14T12:38:25.669Z,100507.00
2024-03-14T12:40:54.275Z,100506.00
2024-03-14T12:43:22.777Z,100507.00
2024-03-14T12:45:51.508Z,100496.00
2024-03-14T12:48:19.583Z,100502.00
2024-03-14T12:50:47.797Z,100489.00
2024-03-14T12:53:16.351Z,100482.00
2024-03-14T12:55:51.867Z,100481.00
2024-03-14T12:58:23.488Z,100489.00
2024-03-14T13:00:51.972Z,100455.00
2024-03-14T13:03:23.296Z,100476.00
2024-03-14T13:05:51.777Z,100464.00
2024-03-14T13:08:21.055Z,100461.00
2024-03-14T13:10:49.231Z,100469.00
2024-03-14T13:13:18.422Z,100464.00
2024-03-14T13:15:48.330Z,100457.00
2024-03-14T13:18:16.679Z,100461.00
2024-03-14T13:20:47.766Z,100462.00
2024-03-14T13:23:19.057Z,100454.00
2024-03-14T13:25:47.732Z,100453.00
2024-03-14T13:28:15.786Z,100454.00
2024-03-14T13:30:43.915Z,100453.00
2024-03-14T13:33:12.162Z,100444.00
2024-03-14T13:35:41.464Z,100440.00
2024-03-14T13:38:09.707Z,100436.00
2024-03-14T13:40:37.704Z,100445.00
2024-03-14T13:43:08.062Z,100445.00
2024-03-14T13:45:37.604Z,100428.00
2024-03-14T13:48:06.157Z,100448.00
2024-03-14T13:50:36.132Z,100448.00
2024-03-14T13:53:05.752Z,100448.00
2024-03-14T13:55:35.258Z,100440.00
2024-03-14T13:58:03.615Z,100438.00
2024-03-14T14:00:46.636Z,100449.00
2024-03-14T14:03:15.485Z,100432.00
2024-03-14T14:05:45.143Z,100435.00
2024-03-14T14:08:13.104Z,100415.00
2024-03-14T14:10:41.065Z,100427.00
2024-03-14T14:13:08.930Z,100427.00
2024-03-14T14:15:37.939Z,100419.00
2024-03-14T14:18:09.092Z,100419.00
2024-03-14T14:20:37.034Z,100411.00
2024-03-14T14:23:05.498Z,100414.00
2024-03-14T14:25:33.443Z,100414.00
2024-03-14T14:28:01.557Z,100412.00
2024-03-14T14:30:33.661Z,100394.00
2024-03-14T14:33:01.860Z,100407.00
2024-03-14T14:35:29.843Z,100405.00
2024-03-14T14:37:59.071Z,100396.00
2024-03-14T14:40:27.743Z,100396.00
2024-03-14T14:42:57.978Z,100366.00
2024-03-14T14:45:26.209Z,100377.00
2024-03-14T14:47:55.976Z,100382.00
2024-03-14T14:50:24.062Z,100378.00
2024-03-14T14:52:54.138Z,100378.00
2024-03-14T14:55:23.991Z,100346.00
2024-03-14T14:57:52.297Z,100374.00
2024-03-14T15:00:22.074Z,100368.00
2024-03-14T15:02:50.166Z,100365.00
2024-03-14T15:05:19.617Z,100361.00
2024-03-14T15:07:49.057Z,100364.00
2024-03-14T15:10:17.652Z,100355.00
2024-03-14T15:12:53.263Z,100362.00
2024-03-14T15:15:28.113Z,100356.00
2024-03-14T15:17:56.285Z,100360.00
2024-03-14T15:20:25.049Z,100356.00
2024-03-14T15:22:54.193Z,100359.00
2024-03-14T15:25:25.967Z,100344.00
2024-03-14T15:27:54.389Z,100353.00
2024-03-14T15:30:24.248Z,100345.00
2024-03-14T15:32:52.915Z,100352.00
2024-03-14T15:35:20.936Z,100339.00
2024-03-14T15:37:48.859Z,100338.00
2024-03-14T15:40:17.615Z,100337.00
2024-03-14T15:42:46.372Z,100339.00
2024-03-14T15:45:18.668Z,100335.00
2024-03-14T15:47:47.749Z,100340.00
2024-03-14T15:50:16.813Z,100332.00
2024-03-14T15:52:45.279Z,100331.00
2024-03-14T15:55:15.565Z,100333.00
2024-03-14T15:57:46.382Z,100336.00
2024-03-14T16:00:15.343Z,100319.00
2024-03-14T16:02:44.582Z,100334.00
2024-03-14T16:05:16.791Z,100325.00
2024-03-14T16:07:47.293Z,100302.00
2024-03-14T16:10:15.856Z,100311.00
2024-03-14T16:12:44.108Z,100309.00
2024-03-14T16:15:13.736Z,100307.00
2024-03-14T16:17:42.690Z,100306.00
2024-03-14T16:20:23.098Z,100307.00
2024-03-14T16:22:51.071Z,100300.00
2024-03-14T16:25:22.435Z,100306.00
2024-03-14T16:27:50.466Z,100309.00
2024-03-14T16:30:19.043Z,100295.00
2024-03-14T16:32:47.945Z,100301.00
2024-03-14T16:35:30.143Z,100287.00
2024-03-14T16:38:00.878Z,100300.00
2024-03-14T16:40:29.481Z,100295.00
2024-03-14T16:42:57.428Z,100263.00
2024-03-14T16:45:31.614Z,100283.00
2024-03-14T16:48:00.341Z,100293.00
2024-03-14T16:50:28.519Z,100289.00
2024-03-14T16:52:56.480Z,100295.00
2024-03-14T16:55:27.469Z,100286.00
2024-03-14T16:57:56.665Z,100291.00
2024-03-14T17:00:24.917Z,100290.00
2024-03-14T17:02:52.928Z,100292.00
2024-03-14T17:05:21.218Z,100293.00
2024-03-14T17:07:49.299Z,100300.00
2024-03-14T17:10:18.114Z,100297.00
2024-03-14T17:12:46.070Z,100301.00
2024-03-14T17:15:14.000Z,100303.00
2024-03-14T17:17:41.951Z,100294.00
2024-03-14T17:20:13.472Z,100288.00
2024-03-14T17:22:42.266Z,100293.00
2024-03-14T17:25:11.549Z,100289.00
2024-03-14T17:27:40.961Z,100300.00
2024-03-14T17:30:09.747Z,100276.00
2024-03-14T17:32:37.949Z,100296.00
2024-03-14T17:35:06.268Z,100294.00
2024-03-14T17:37:34.373Z,100293.00
2024-03-14T17:40:12.076Z,100299.00
2024-03-14T17:42:40.258Z,100301.00
2024-03-14T17:45:10.699Z,100285.00
2024-03-14T17:47:39.916Z,100299.00
2024-03-14T17:50:11.849Z,100293.00
2024-03-14T17:52:40.183Z,100302.00
2024-03-14T17:55:08.560Z,100306.00
2024-03-14T17:57:39.679Z,100306.00
2024-03-14T18:00:11.077Z,100312.00
2024-03-14T18:02:39.155Z,100293.00
2024-03-14T18:05:10.270Z,100285.00
2024-03-14T18:07:38.989Z,100265.00
2024-03-14T18:10:08.965Z,100294.00
2024-03-14T18:12:37.353Z,100268.00
2024-03-14T18:15:09.609Z,100294.00
2024-03-14T18:17:38.761Z,100266.00
2024-03-14T18:20:10.022Z,100300.00
2024-03-14T18:22:39.147Z,100296.00
2024-03-14T18:25:07.550Z,100270.00
2024-03-14T18:27:36.141Z,100296.00
2024-03-14T18:30:05.901Z,100287.00
2024-03-14T18:32:34.205Z,100265.00
2024-03-14T18:35:02.377Z,100238.00
2024-03-14T18:37:31.700Z,100245.00
2024-03-14T18:40:00.632Z,100295.00
2024-03-14T18:42:29.086Z,100262.00
2024-03-14T18:44:58.874Z,100222.00
2024-03-14T18:47:27.563Z,100288.00
2024-03-14T18:49:54.844Z,100265.00
2024-03-14T18:52:25.175Z,100251.00
2024-03-14T18:54:53.210Z,100242.00
2024-03-14T18:57:24.546Z,100243.00
2024-03-14T18:59:53.481Z,100220.00
2024-03-14T19:02:22.634Z,100253.00
2024-03-14T19:04:54.635Z,100251.00
2024-03-14T19:07:23.010Z,100227.00
2024-03-14T19:09:51.227Z,100217.00
2024-03-14T19:12:19.920Z,100235.00
2024-03-14T19:14:48.595Z,100252.00
2024-03-14T19:17:20.644Z,100214.00
2024-03-14T19:19:51.698Z,100267.00
2024-03-14T19:22:20.214Z,100261.00
2024-03-14T19:24:48.497Z,100256.00
2024-03-14T19:27:17.376Z,100228.00
2024-03-14T19:29:48.989Z,100265.00
2024-03-14T19:32:17.075Z,100243.00
2024-03-14T19:34:45.320Z,100251.00
2024-03-14T19:37:13.494Z,100259.00
2024-03-14T19:39:41.553Z,100209.00
2024-03-14T19:42:10.320Z,100256.00
2024-03-14T19:44:38.765Z,100247.00
2024-03-14T19:47:09.078Z,100257.00
2024-03-14T19:49:37.112Z,100259.00
2024-03-14T19:52:05.367Z,100258.00
2024-03-14T19:54:34.576Z,100259.00
2024-03-14T19:57:02.609Z,100254.00
2024-03-14T19:59:30.662Z,100251.00
2024-03-14T20:01:58.752Z,100243.00
2024-03-14T20:04:27.016Z,100241.00
2024-03-14T20:06:55.014Z,100201.00
2024-03-14T20:09:23.171Z,100235.00
2024-03-14T20:11:53.578Z,100238.00
2024-03-14T20:14:23.375Z,100238.00
2024-03-14T20:16:51.253Z,100244.00
2024-03-14T20:19:20.920Z,100241.00
2024-03-14T20:21:49.196Z,100236.00
2024-03-14T20:24:17.371Z,100237.00
2024-03-14T20:26:47.132Z,100234.00
2024-03-14T20:29:15.106Z,100236.00
2024-03-14T20:31:43.630Z,100236.00
2024-03-14T20:34:13.208Z,100235.00
2024-03-14T20:36:41.182Z,100226.00
2024-03-14T20:39:12.283Z,100230.00
2024-03-14T20:41:40.471Z,100224.00
2024-03-14T20:44:09.748Z,100231.00
2024-03-14T20:46:37.963Z,100227.00
2024-03-14T20:49:07.011Z,100226.00
2024-03-14T20:51:38.208Z,100227.00
2024-03-14T20:54:06.379Z,100229.00
2024-03-14T20:56:34.672Z,100217.00
2024-03-14T20:59:04.249Z,100222.00
2024-03-14T21:01:32.490Z,100212.00
2024-03-14T21:04:00.504Z,100221.00
2024-03-14T21:06:28.417Z,100214.00
2024-03-14T21:08:57.488Z,100217.00
2024-03-14T21:11:25.703Z,100209.00
2024-03-14T21:13:53.664Z,100224.00
2024-03-14T21:16:23.295Z,100227.00
2024-03-14T21:18:51.504Z,100209.00
2024-03-14T21:21:19.820Z,100213.00
2024-03-14T21:23:47.971Z,100211.00
2024-03-14T21:26:16.823Z,100209.00
2024-03-14T21:28:44.764Z,100213.00
2024-03-14T21:31:13.314Z,100214.00
2024-03-14T21:33:41.522Z,100211.00
2024-03-14T21:36:10.762Z,100225.00
2024-03-14T21:38:39.655Z,100216.00
2024-03-14T21:41:07.570Z,100207.00
2024-03-14T21:43:36.641Z,100205.00
2024-03-14T21:46:06.192Z,100208.00
2024-03-14T21:48:34.426Z,100192.00
2024-03-14T21:51:03.767Z,100198.00
2024-03-14T21:53:31.909Z,100197.00
2024-03-14T21:56:00.068Z,100199.00
2024-03-14T21:58:32.032Z,100193.00
2024-03-14T22:01:07.082Z,100198.00
2024-03-14T22:03:37.222Z,100189.00
2024-03-14T22:06:08.967Z,100199.00
2024-03-14T22:08:36.925Z,100194.00
2024-03-14T22:11:05.411Z,100201.00
2024-03-14T22:13:33.720Z,100201.00
2024-03-14T22:16:01.628Z,100198.00
2024-03-14T22:18:30.547Z,100190.00
2024-03-14T22:20:58.513Z,100187.00
2024-03-14T22:23:26.383Z,100186.00
2024-03-14T22:25:55.185Z,100177.00
2024-03-14T22:28:22.391Z,100178.00
2024-03-14T22:30:55.965Z,100172.00
2024-03-14T22:33:28.168Z,100175.00
2024-03-14T22:35:56.770Z,100178.00
2024-03-14T22:38:24.628Z,100178.00
2024-03-14T22:40:52.450Z,100171.00
2024-03-14T22:43:20.337Z,100171.00
2024-03-14T22:45:48.226Z,100163.00
2024-03-14T22:48:16.179Z,100175.00
2024-03-14T22:50:45.055Z,100154.00
2024-03-14T22:53:12.932Z,100167.00
2024-03-14T22:55:44.854Z,100165.00
2024-03-14T22:58:13.057Z,100156.00
2024-03-14T23:00:47.572Z,100160.00
2024-03-14T23:03:16.625Z,100158.00
2024-03-14T23:05:46.168Z,100156.00
2024-03-14T23:08:16.322Z,100153.00
2024-03-14T23:10:46.089Z,100149.00
2024-03-14T23:13:17.663Z,100153.00
2024-03-14T23:15:45.873Z,100157.00
2024-03-14T23:18:14.089Z,100145.00
2024-03-14T23:20:42.254Z,100141.00
2024-03-14T23:23:10.243Z,100138.00
2024-03-14T23:25:41.121Z,100132.00
2024-03-14T23:28:11.382Z,100135.00
2024-03-14T23:30:41.073Z,100132.00
2024-03-14T23:33:09.340Z,100123.00
2024-03-14T23:35:39.109Z,100120.00
2024-03-14T23:38:07.111Z,100123.00
2024-03-14T23:40:36.128Z,100114.00
2024-03-14T23:43:04.323Z,100115.00
2024-03-14T23:45:32.281Z,100115.00
2024-03-14T23:48:00.266Z,100091.00
2024-03-14T23:50:28.639Z,100114.00
2024-03-14T23:52:56.758Z,100111.00
2024-03-14T23:55:24.646Z,100112.00
2024-03-14T23:57:54.480Z,100110.00
